Galicia — ECEC — position and weather

sailwx.info

Track history (hours):
 
Tides and Currents Weather Stations Pressure Air Temp Water Temp Dewpoint Dewpoint Depression Visibility Wind Speed Wind Dir Waves Ship Positions

Galicia

Last reported at 2016-May-24 17:07 UTC. Time now 2016-Aug-31 00:33 UTC.
Position N 48°53' W 005°49'.
Warning: this ship's position is months out of date.

Length 149 m; draft 5.7 m.

Type: Cargo ship. MMSI: 224548000.

Date/timePositionNaut miles runAvg speedWind from/ knotsBaromVisibWave heightAir tempDewpointWater temp
2016-May-24 17:07N 48°53' W 005°49'1214.0
2016-May-24 16:17N 48°60' W 005°35'1114.5
2016-May-24 15:33N 49°05' W 005°21'8015.9
2016-May-24 10:33N 49°46' W 003°36'1514.6
2016-May-24 09:33N 49°52' W 003°16'1413.7
2016-May-24 08:33N 49°59' W 002°57'10016.1
2016-May-24 02:22N 50°27' W 000°27'1316.5
2016-May-24 01:33N 50°30' W 000°07'1615.5
2016-May-24 00:30N 50°34' E 000°18'4214.4
2016-May-23 21:33N 50°57' E 001°14'1817.7
2016-May-23 20:34N 51°08' E 001°37'1717.5
2016-May-23 19:33N 51°21' E 001°55'1413.5
2016-May-23 18:33N 51°21' E 002°17'1615.4
2016-May-23 17:33N 51°23' E 002°41'1413.6
2016-May-23 16:33N 51°25' E 003°03'8 7.7
2016-May-23 15:33N 51°20' E 003°13'2 1.7
2016-May-23 14:33N 51°19' E 003°14'0 0.0
2016-May-23 13:30N 51°19' E 003°14'0 0.0
2016-May-23 12:30N 51°19' E 003°14'0 0.0
2016-May-23 11:27N 51°19' E 003°14'0 0.0
2016-May-23 10:27N 51°19' E 003°14'0 0.0
2016-May-23 09:33N 51°19' E 003°14'0 0.0
2016-May-23 08:30N 51°19' E 003°14'0 0.0
2016-May-23 07:33N 51°19' E 003°14'0 0.0
2016-May-23 06:30N 51°19' E 003°14'0 0.0
2016-May-23 05:33N 51°19' E 003°14'0 0.0
2016-May-23 04:30N 51°19' E 003°14'0 0.0
2016-May-23 03:27N 51°19' E 003°14'0 0.0
2016-May-23 02:30N 51°19' E 003°14'0 0.0
2016-May-23 01:33N 51°19' E 003°14'0 0.0
2016-May-23 00:33N 51°19' E 003°14'0 0.0
2016-May-22 23:33N 51°19' E 003°14'0 0.0
2016-May-22 22:24N 51°19' E 003°14'0 0.0
2016-May-22 21:33N 51°19' E 003°14'0 0.0
2016-May-22 20:33N 51°19' E 003°14'0 0.0
2016-May-22 19:24N 51°19' E 003°14'0 0.0
2016-May-22 18:27N 51°19' E 003°14'0 0.0
2016-May-22 17:27N 51°19' E 003°14'0 0.0
2016-May-22 16:27N 51°19' E 003°14'0 0.0
2016-May-22 15:33N 51°19' E 003°14'0 0.0
2016-May-22 14:30N 51°19' E 003°14'0 0.0
2016-May-22 13:30N 51°19' E 003°14'0 0.0
2016-May-22 12:30N 51°19' E 003°14'0 0.0
2016-May-22 11:33N 51°19' E 003°14'0 0.0
2016-May-22 10:30N 51°19' E 003°14'0 0.0
2016-May-22 09:32N 51°19' E 003°14'0 0.0
2016-May-22 08:32N 51°19' E 003°14'0 0.0
2016-May-22 07:32N 51°19' E 003°14'0 0.0
2016-May-22 06:32N 51°19' E 003°14'0 0.0
2016-May-22 05:32N 51°19' E 003°14'0 0.0
2016-May-22 04:32N 51°19' E 003°14'0 0.0
2016-May-22 03:29N 51°19' E 003°14'0 0.0
2016-May-22 02:29N 51°19' E 003°14'0 0.0
2016-May-22 01:32N 51°19' E 003°14'0 0.0
2016-May-22 00:29N 51°19' E 003°14'0 0.0
2016-May-21 23:20N 51°19' E 003°14'0 0.0
2016-May-21 21:05N 51°19' E 003°14'0 0.2
2016-May-21 20:33N 51°19' E 003°14'1 1.4
2016-May-21 19:34N 51°20' E 003°13'0 0.3
2016-May-21 18:34N 51°20' E 003°13'10 9.5
2016-May-21 17:34N 51°23' E 002°58'1311.8
2016-May-21 16:30N 51°22' E 002°38'9 8.4
2016-May-21 15:24N 51°20' E 002°24'7 8.2
2016-May-21 14:33N 51°16' E 002°15'1212.1
2016-May-21 13:33N 51°24' E 002°00'1212.0
2016-May-21 12:33N 51°29' E 001°43'1211.5
2016-May-21 11:33N 51°28' E 001°24'1413.7
2016-May-21 10:34N 51°29' E 001°03'1211.4
2016-May-21 09:32N 51°27' E 000°45'0 0.0
2016-May-21 08:29N 51°27' E 000°45'0 0.0
2016-May-21 07:29N 51°27' E 000°45'0 0.0
2016-May-21 06:29N 51°27' E 000°45'0 0.0
2016-May-21 05:32N 51°27' E 000°45'0 0.0
2016-May-21 04:32N 51°27' E 000°45'0 0.0
2016-May-21 03:32N 51°27' E 000°45'0 0.0
2016-May-21 02:32N 51°27' E 000°45'0 0.0
2016-May-21 01:31N 51°27' E 000°45'0 0.0
2016-May-21 00:28N 51°27' E 000°45'1 1.1
2016-May-20 23:33N 51°27' E 000°45'1515.1
2016-May-20 22:33N 51°29' E 001°09'1514.6
2016-May-20 21:33N 51°28' E 001°33'1514.5
2016-May-20 20:34N 51°35' E 001°53'1515.1
2016-May-20 19:33N 51°44' E 002°12'1515.0
2016-May-20 18:34N 51°54' E 002°30'131 9.3
2016-May-20 04:31N 53°32' E 004°54'8 8.2
2016-May-20 03:33N 53°35' E 005°06'9 8.8
2016-May-20 02:33N 53°37' E 005°20'10 9.8
2016-May-20 01:33N 53°41' E 005°36'1110.6
2016-May-20 00:33N 53°44' E 005°53'10 9.8
2016-May-19 23:33N 53°44' E 006°09'1010.3
2016-May-19 22:33N 53°37' E 006°22'1514.9
2016-May-19 21:34N 53°32' E 006°45'1414.1
2016-May-19 20:34N 53°21' E 006°60'7 6.7
2016-May-19 19:33N 53°20' E 007°11'0 0.0
2016-May-19 18:33N 53°20' E 007°11'0 0.0
2016-May-19 17:33N 53°20' E 007°11'0 0.0
2016-May-19 16:33N 53°20' E 007°11'0 0.0
2016-May-19 15:33N 53°20' E 007°11'0 0.0
2016-May-19 14:33N 53°20' E 007°11'0 0.0
2016-May-19 13:33N 53°20' E 007°11'0 0.0
2016-May-19 12:33N 53°20' E 007°11'0 0.0
2016-May-19 11:33N 53°20' E 007°11'0 0.0
2016-May-19 10:34N 53°20' E 007°11'7 7.1
2016-May-19 09:33N 53°21' E 006°59'1615.7
2016-May-19 08:34N 53°33' E 006°42'1615.6
2016-May-19 07:34N 53°38' E 006°17'1212.1
2016-May-19 06:33N 53°39' E 005°56'1313.2
2016-May-19 05:34N 53°35' E 005°35'1514.7
2016-May-19 04:33N 53°30' E 005°12'3313.9
2016-May-19 02:09N 53°08' E 004°29'915.1
2016-May-19 01:33N 53°00' E 004°22'1515.2
2016-May-19 00:33N 52°47' E 004°11'1515.4
2016-May-18 23:33N 52°36' E 003°53'1615.4
2016-May-18 22:33N 52°24' E 003°36'7214.4
2016-May-18 17:33N 51°32' E 002°17'1413.7
2016-May-18 16:33N 51°19' E 002°08'1413.9
2016-May-18 15:34N 51°09' E 001°53'1514.5
2016-May-18 14:33N 50°59' E 001°36'5914.4
2016-May-18 10:30N 50°23' E 000°23'1415.4
2016-May-18 09:33N 50°19' E 000°01'11117.4
2016-May-18 03:12N 49°50' W 002°45'1515.8
2016-May-18 02:14N 49°43' W 003°06'1116.0
2016-May-18 01:33N 49°38' W 003°20'3915.6
2016-May-17 23:05N 49°18' W 004°11'915.4
2016-May-17 22:29N 49°13' W 004°23'3214.9
2016-May-17 20:22N 48°57' W 005°04'1614.6
2016-May-17 19:15N 48°49' W 005°26'61314.6
2016-May-16 01:10N 39°06' W 009°51'914.1
2016-May-16 00:33N 38°57' W 009°51'1513.9
2016-May-15 23:30N 38°43' W 009°51'1313.8
2016-May-15 22:32N 38°30' W 009°46'1914.0
2016-May-15 21:10N 38°11' W 009°42'814.0
2016-May-15 20:33N 38°02' W 009°40'1413.9
2016-May-15 19:33N 37°49' W 009°36'8212.7
2016-May-15 13:06N 36°38' W 008°43'814.7
2016-May-15 12:32N 36°36' W 008°34'1514.5
2016-May-15 11:30N 36°31' W 008°16'1614.7
2016-May-15 10:24N 36°26' W 007°57'11914.5
2016-May-15 02:13N 35°58' W 005°34'811.6
2016-May-15 01:33N 36°00' W 005°25'  
Track history (hours):
 
Tides and Currents Weather Stations Pressure Air Temp Water Temp Dewpoint Dewpoint Depression Visibility Wind Speed Wind Dir Waves Ship Positions

Galicia

Last reported at 2016-May-24 17:07 UTC. Time now 2016-Aug-31 00:33 UTC.
Position N 48°53' W 005°49'.
Warning: this ship's position is months out of date.

Length 149 m; draft 5.7 m.

Type: Cargo ship. MMSI: 224548000.

Date/timePositionNaut miles runAvg speedWind from/ knotsBaromVisibWave heightAir tempDewpointWater temp
2016-May-24 17:07N 48°53' W 005°49'1214.0
2016-May-24 16:17N 48°60' W 005°35'1114.5
2016-May-24 15:33N 49°05' W 005°21'8015.9
2016-May-24 10:33N 49°46' W 003°36'1514.6
2016-May-24 09:33N 49°52' W 003°16'1413.7
2016-May-24 08:33N 49°59' W 002°57'10016.1
2016-May-24 02:22N 50°27' W 000°27'1316.5
2016-May-24 01:33N 50°30' W 000°07'1615.5
2016-May-24 00:30N 50°34' E 000°18'4214.4
2016-May-23 21:33N 50°57' E 001°14'1817.7
2016-May-23 20:34N 51°08' E 001°37'1717.5
2016-May-23 19:33N 51°21' E 001°55'1413.5
2016-May-23 18:33N 51°21' E 002°17'1615.4
2016-May-23 17:33N 51°23' E 002°41'1413.6
2016-May-23 16:33N 51°25' E 003°03'8 7.7
2016-May-23 15:33N 51°20' E 003°13'2 1.7
2016-May-23 14:33N 51°19' E 003°14'0 0.0
2016-May-23 13:30N 51°19' E 003°14'0 0.0
2016-May-23 12:30N 51°19' E 003°14'0 0.0
2016-May-23 11:27N 51°19' E 003°14'0 0.0
2016-May-23 10:27N 51°19' E 003°14'0 0.0
2016-May-23 09:33N 51°19' E 003°14'0 0.0
2016-May-23 08:30N 51°19' E 003°14'0 0.0
2016-May-23 07:33N 51°19' E 003°14'0 0.0
2016-May-23 06:30N 51°19' E 003°14'0 0.0
2016-May-23 05:33N 51°19' E 003°14'0 0.0
2016-May-23 04:30N 51°19' E 003°14'0 0.0
2016-May-23 03:27N 51°19' E 003°14'0 0.0
2016-May-23 02:30N 51°19' E 003°14'0 0.0
2016-May-23 01:33N 51°19' E 003°14'0 0.0
2016-May-23 00:33N 51°19' E 003°14'0 0.0
2016-May-22 23:33N 51°19' E 003°14'0 0.0
2016-May-22 22:24N 51°19' E 003°14'0 0.0
2016-May-22 21:33N 51°19' E 003°14'0 0.0
2016-May-22 20:33N 51°19' E 003°14'0 0.0
2016-May-22 19:24N 51°19' E 003°14'0 0.0
2016-May-22 18:27N 51°19' E 003°14'0 0.0
2016-May-22 17:27N 51°19' E 003°14'0 0.0
2016-May-22 16:27N 51°19' E 003°14'0 0.0
2016-May-22 15:33N 51°19' E 003°14'0 0.0
2016-May-22 14:30N 51°19' E 003°14'0 0.0
2016-May-22 13:30N 51°19' E 003°14'0 0.0
2016-May-22 12:30N 51°19' E 003°14'0 0.0
2016-May-22 11:33N 51°19' E 003°14'0 0.0
2016-May-22 10:30N 51°19' E 003°14'0 0.0
2016-May-22 09:32N 51°19' E 003°14'0 0.0
2016-May-22 08:32N 51°19' E 003°14'0 0.0
2016-May-22 07:32N 51°19' E 003°14'0 0.0
2016-May-22 06:32N 51°19' E 003°14'0 0.0
2016-May-22 05:32N 51°19' E 003°14'0 0.0
2016-May-22 04:32N 51°19' E 003°14'0 0.0
2016-May-22 03:29N 51°19' E 003°14'0 0.0
2016-May-22 02:29N 51°19' E 003°14'0 0.0
2016-May-22 01:32N 51°19' E 003°14'0 0.0
2016-May-22 00:29N 51°19' E 003°14'0 0.0
2016-May-21 23:20N 51°19' E 003°14'0 0.0
2016-May-21 21:05N 51°19' E 003°14'0 0.2
2016-May-21 20:33N 51°19' E 003°14'1 1.4
2016-May-21 19:34N 51°20' E 003°13'0 0.3
2016-May-21 18:34N 51°20' E 003°13'10 9.5
2016-May-21 17:34N 51°23' E 002°58'1311.8
2016-May-21 16:30N 51°22' E 002°38'9 8.4
2016-May-21 15:24N 51°20' E 002°24'7 8.2
2016-May-21 14:33N 51°16' E 002°15'1212.1
2016-May-21 13:33N 51°24' E 002°00'1212.0
2016-May-21 12:33N 51°29' E 001°43'1211.5
2016-May-21 11:33N 51°28' E 001°24'1413.7
2016-May-21 10:34N 51°29' E 001°03'1211.4
2016-May-21 09:32N 51°27' E 000°45'0 0.0
2016-May-21 08:29N 51°27' E 000°45'0 0.0
2016-May-21 07:29N 51°27' E 000°45'0 0.0
2016-May-21 06:29N 51°27' E 000°45'0 0.0
2016-May-21 05:32N 51°27' E 000°45'0 0.0
2016-May-21 04:32N 51°27' E 000°45'0 0.0
2016-May-21 03:32N 51°27' E 000°45'0 0.0
2016-May-21 02:32N 51°27' E 000°45'0 0.0
2016-May-21 01:31N 51°27' E 000°45'0 0.0
2016-May-21 00:28N 51°27' E 000°45'1 1.1
2016-May-20 23:33N 51°27' E 000°45'1515.1
2016-May-20 22:33N 51°29' E 001°09'1514.6
2016-May-20 21:33N 51°28' E 001°33'1514.5
2016-May-20 20:34N 51°35' E 001°53'1515.1
2016-May-20 19:33N 51°44' E 002°12'1515.0
2016-May-20 18:34N 51°54' E 002°30'131 9.3
2016-May-20 04:31N 53°32' E 004°54'8 8.2
2016-May-20 03:33N 53°35' E 005°06'9 8.8
2016-May-20 02:33N 53°37' E 005°20'10 9.8
2016-May-20 01:33N 53°41' E 005°36'1110.6
2016-May-20 00:33N 53°44' E 005°53'10 9.8
2016-May-19 23:33N 53°44' E 006°09'1010.3
2016-May-19 22:33N 53°37' E 006°22'1514.9
2016-May-19 21:34N 53°32' E 006°45'1414.1
2016-May-19 20:34N 53°21' E 006°60'7 6.7
2016-May-19 19:33N 53°20' E 007°11'0 0.0
2016-May-19 18:33N 53°20' E 007°11'0 0.0
2016-May-19 17:33N 53°20' E 007°11'0 0.0
2016-May-19 16:33N 53°20' E 007°11'0 0.0
2016-May-19 15:33N 53°20' E 007°11'0 0.0
2016-May-19 14:33N 53°20' E 007°11'0 0.0
2016-May-19 13:33N 53°20' E 007°11'0 0.0
2016-May-19 12:33N 53°20' E 007°11'0 0.0
2016-May-19 11:33N 53°20' E 007°11'0 0.0
2016-May-19 10:34N 53°20' E 007°11'7 7.1
2016-May-19 09:33N 53°21' E 006°59'1615.7
2016-May-19 08:34N 53°33' E 006°42'1615.6
2016-May-19 07:34N 53°38' E 006°17'1212.1
2016-May-19 06:33N 53°39' E 005°56'1313.2
2016-May-19 05:34N 53°35' E 005°35'1514.7
2016-May-19 04:33N 53°30' E 005°12'3313.9
2016-May-19 02:09N 53°08' E 004°29'915.1
2016-May-19 01:33N 53°00' E 004°22'1515.2
2016-May-19 00:33N 52°47' E 004°11'1515.4
2016-May-18 23:33N 52°36' E 003°53'1615.4
2016-May-18 22:33N 52°24' E 003°36'7214.4
2016-May-18 17:33N 51°32' E 002°17'1413.7
2016-May-18 16:33N 51°19' E 002°08'1413.9
2016-May-18 15:34N 51°09' E 001°53'1514.5
2016-May-18 14:33N 50°59' E 001°36'5914.4
2016-May-18 10:30N 50°23' E 000°23'1415.4
2016-May-18 09:33N 50°19' E 000°01'11117.4
2016-May-18 03:12N 49°50' W 002°45'1515.8
2016-May-18 02:14N 49°43' W 003°06'1116.0
2016-May-18 01:33N 49°38' W 003°20'3915.6
2016-May-17 23:05N 49°18' W 004°11'915.4
2016-May-17 22:29N 49°13' W 004°23'3214.9
2016-May-17 20:22N 48°57' W 005°04'1614.6
2016-May-17 19:15N 48°49' W 005°26'61314.6
2016-May-16 01:10N 39°06' W 009°51'914.1
2016-May-16 00:33N 38°57' W 009°51'1513.9
2016-May-15 23:30N 38°43' W 009°51'1313.8
2016-May-15 22:32N 38°30' W 009°46'1914.0
2016-May-15 21:10N 38°11' W 009°42'814.0
2016-May-15 20:33N 38°02' W 009°40'1413.9
2016-May-15 19:33N 37°49' W 009°36'8212.7
2016-May-15 13:06N 36°38' W 008°43'814.7
2016-May-15 12:32N 36°36' W 008°34'1514.5
2016-May-15 11:30N 36°31' W 008°16'1614.7
2016-May-15 10:24N 36°26' W 007°57'11914.5
2016-May-15 02:13N 35°58' W 005°34'811.6
2016-May-15 01:33N 36°00' W 005°25'  

Dump ship's entire track history